sensor_id;sensor_type;location;lat;lon;timestamp;P1;durP1;ratioP1;P2;durP2;ratioP2
51529;SDS011;37613;51.788;21.582;2023-05-10T00:02:23;27.30;;;9.70;;
51529;SDS011;37613;51.788;21.582;2023-05-10T00:06:52;31.50;;;12.50;;
51529;SDS011;37613;51.788;21.582;2023-05-10T00:11:24;13.60;;;7.10;;
51529;SDS011;37613;51.788;21.582;2023-05-10T00:16:01;13.90;;;6.50;;
51529;SDS011;37613;51.788;21.582;2023-05-10T00:25:18;13.40;;;5.90;;
51529;SDS011;37613;51.788;21.582;2023-05-10T00:29:42;16.40;;;7.80;;
51529;SDS011;37613;51.788;21.582;2023-05-10T00:38:51;18.10;;;8.10;;
51529;SDS011;37613;51.788;21.582;2023-05-10T01:04:28;9.20;;;5.00;;
51529;SDS011;37613;51.788;21.582;2023-05-10T01:09:22;10.30;;;6.00;;
51529;SDS011;37613;51.788;21.582;2023-05-10T01:14:29;12.60;;;6.50;;
51529;SDS011;37613;51.788;21.582;2023-05-10T01:52:19;15.40;;;3.60;;
51529;SDS011;37613;51.788;21.582;2023-05-10T02:08:19;7.90;;;4.60;;
51529;SDS011;37613;51.788;21.582;2023-05-10T02:12:59;7.20;;;4.40;;
51529;SDS011;37613;51.788;21.582;2023-05-10T02:17:37;7.10;;;4.60;;
51529;SDS011;37613;51.788;21.582;2023-05-10T02:28:14;9.00;;;4.40;;
51529;SDS011;37613;51.788;21.582;2023-05-10T02:43:19;11.70;;;5.70;;
51529;SDS011;37613;51.788;21.582;2023-05-10T02:59:03;8.60;;;5.10;;
51529;SDS011;37613;51.788;21.582;2023-05-10T03:04:06;12.50;;;5.10;;
51529;SDS011;37613;51.788;21.582;2023-05-10T03:09:11;10.30;;;5.10;;
51529;SDS011;37613;51.788;21.582;2023-05-10T03:45:06;9.70;;;4.70;;
51529;SDS011;37613;51.788;21.582;2023-05-10T03:50:21;8.20;;;5.00;;
51529;SDS011;37613;51.788;21.582;2023-05-10T03:55:01;7.90;;;4.90;;
51529;SDS011;37613;51.788;21.582;2023-05-10T04:14:51;12.50;;;4.60;;
51529;SDS011;37613;51.788;21.582;2023-05-10T04:19:32;12.40;;;6.10;;
51529;SDS011;37613;51.788;21.582;2023-05-10T04:23:43;18.70;;;8.80;;
51529;SDS011;37613;51.788;21.582;2023-05-10T04:28:04;8.30;;;5.00;;
51529;SDS011;37613;51.788;21.582;2023-05-10T04:32:13;11.10;;;5.90;;
51529;SDS011;37613;51.788;21.582;2023-05-10T04:36:17;9.80;;;5.80;;
51529;SDS011;37613;51.788;21.582;2023-05-10T04:40:30;17.90;;;6.40;;
51529;SDS011;37613;51.788;21.582;2023-05-10T04:44:39;9.60;;;5.20;;
51529;SDS011;37613;51.788;21.582;2023-05-10T04:48:58;9.00;;;5.00;;
51529;SDS011;37613;51.788;21.582;2023-05-10T04:57:35;11.20;;;4.90;;
51529;SDS011;37613;51.788;21.582;2023-05-10T05:01:45;6.90;;;5.10;;
51529;SDS011;37613;51.788;21.582;2023-05-10T05:05:47;9.50;;;4.40;;
51529;SDS011;37613;51.788;21.582;2023-05-10T05:09:49;7.80;;;4.90;;
51529;SDS011;37613;51.788;21.582;2023-05-10T05:13:51;6.20;;;3.30;;
51529;SDS011;37613;51.788;21.582;2023-05-10T05:18:16;6.50;;;3.00;;
51529;SDS011;37613;51.788;21.582;2023-05-10T05:22:18;4.60;;;3.10;;
51529;SDS011;37613;51.788;21.582;2023-05-10T05:26:30;5.30;;;3.60;;
51529;SDS011;37613;51.788;21.582;2023-05-10T05:30:38;3.70;;;3.10;;
51529;SDS011;37613;51.788;21.582;2023-05-10T05:34:40;5.10;;;3.20;;
51529;SDS011;37613;51.788;21.582;2023-05-10T05:38:46;5.50;;;3.20;;
51529;SDS011;37613;51.788;21.582;2023-05-10T05:42:52;8.70;;;3.90;;
51529;SDS011;37613;51.788;21.582;2023-05-10T05:46:59;5.10;;;3.20;;
51529;SDS011;37613;51.788;21.582;2023-05-10T05:51:03;5.80;;;3.50;;
51529;SDS011;37613;51.788;21.582;2023-05-10T05:55:06;7.70;;;4.20;;
51529;SDS011;37613;51.788;21.582;2023-05-10T05:59:15;7.60;;;4.20;;
51529;SDS011;37613;51.788;21.582;2023-05-10T06:03:20;9.90;;;5.10;;
51529;SDS011;37613;51.788;21.582;2023-05-10T06:07:29;5.70;;;3.60;;
51529;SDS011;37613;51.788;21.582;2023-05-10T06:11:34;6.90;;;3.70;;
51529;SDS011;37613;51.788;21.582;2023-05-10T06:20:41;4.00;;;2.70;;
51529;SDS011;37613;51.788;21.582;2023-05-10T06:24:44;5.50;;;2.80;;
51529;SDS011;37613;51.788;21.582;2023-05-10T06:28:46;7.90;;;3.20;;
51529;SDS011;37613;51.788;21.582;2023-05-10T06:32:54;3.90;;;3.30;;
51529;SDS011;37613;51.788;21.582;2023-05-10T06:36:56;6.80;;;4.00;;
51529;SDS011;37613;51.788;21.582;2023-05-10T06:40:59;5.20;;;2.30;;
51529;SDS011;37613;51.788;21.582;2023-05-10T06:45:01;5.40;;;3.00;;
51529;SDS011;37613;51.788;21.582;2023-05-10T06:49:04;8.50;;;2.70;;
51529;SDS011;37613;51.788;21.582;2023-05-10T06:53:06;4.20;;;2.60;;
51529;SDS011;37613;51.788;21.582;2023-05-10T06:57:08;5.10;;;2.40;;
51529;SDS011;37613;51.788;21.582;2023-05-10T07:01:10;6.50;;;2.40;;
51529;SDS011;37613;51.788;21.582;2023-05-10T07:05:15;7.30;;;2.60;;
51529;SDS011;37613;51.788;21.582;2023-05-10T07:09:17;6.30;;;2.00;;
51529;SDS011;37613;51.788;21.582;2023-05-10T07:13:19;5.40;;;2.70;;
51529;SDS011;37613;51.788;21.582;2023-05-10T07:17:21;2.30;;;1.60;;
51529;SDS011;37613;51.788;21.582;2023-05-10T07:21:23;3.90;;;2.20;;
51529;SDS011;37613;51.788;21.582;2023-05-10T07:25:26;3.10;;;1.80;;
51529;SDS011;37613;51.788;21.582;2023-05-10T07:29:28;3.00;;;1.90;;
51529;SDS011;37613;51.788;21.582;2023-05-10T07:33:31;1.80;;;1.50;;
51529;SDS011;37613;51.788;21.582;2023-05-10T07:37:33;2.10;;;1.50;;
51529;SDS011;37613;51.788;21.582;2023-05-10T07:45:39;2.30;;;2.00;;
51529;SDS011;37613;51.788;21.582;2023-05-10T07:49:41;12.90;;;2.10;;
51529;SDS011;37613;51.788;21.582;2023-05-10T07:53:43;3.60;;;2.50;;
51529;SDS011;37613;51.788;21.582;2023-05-10T07:57:45;2.60;;;2.10;;
51529;SDS011;37613;51.788;21.582;2023-05-10T08:01:48;6.00;;;3.00;;
51529;SDS011;37613;51.788;21.582;2023-05-10T08:05:51;3.70;;;2.10;;
51529;SDS011;37613;51.788;21.582;2023-05-10T08:09:56;7.30;;;1.90;;
51529;SDS011;37613;51.788;21.582;2023-05-10T08:13:58;3.00;;;1.50;;
51529;SDS011;37613;51.788;21.582;2023-05-10T08:18:03;2.80;;;1.70;;
51529;SDS011;37613;51.788;21.582;2023-05-10T08:22:06;2.40;;;1.50;;
51529;SDS011;37613;51.788;21.582;2023-05-10T08:26:08;3.20;;;2.10;;
51529;SDS011;37613;51.788;21.582;2023-05-10T08:30:10;11.90;;;2.00;;
51529;SDS011;37613;51.788;21.582;2023-05-10T08:34:16;4.40;;;2.10;;
51529;SDS011;37613;51.788;21.582;2023-05-10T08:38:18;5.10;;;3.40;;
51529;SDS011;37613;51.788;21.582;2023-05-10T08:42:21;8.20;;;1.90;;
51529;SDS011;37613;51.788;21.582;2023-05-10T08:46:27;2.50;;;1.80;;
51529;SDS011;37613;51.788;21.582;2023-05-10T08:50:32;4.90;;;1.80;;
51529;SDS011;37613;51.788;21.582;2023-05-10T08:54:37;2.90;;;1.90;;
51529;SDS011;37613;51.788;21.582;2023-05-10T08:58:42;2.40;;;1.60;;
51529;SDS011;37613;51.788;21.582;2023-05-10T09:06:52;8.30;;;2.30;;
51529;SDS011;37613;51.788;21.582;2023-05-10T09:14:58;5.70;;;1.90;;
51529;SDS011;37613;51.788;21.582;2023-05-10T09:19:04;6.40;;;3.80;;
51529;SDS011;37613;51.788;21.582;2023-05-10T09:23:08;4.10;;;2.10;;
51529;SDS011;37613;51.788;21.582;2023-05-10T09:27:10;4.60;;;1.90;;
51529;SDS011;37613;51.788;21.582;2023-05-10T09:31:12;2.80;;;2.00;;
51529;SDS011;37613;51.788;21.582;2023-05-10T09:35:18;7.50;;;2.50;;
51529;SDS011;37613;51.788;21.582;2023-05-10T09:39:32;4.30;;;2.20;;
51529;SDS011;37613;51.788;21.582;2023-05-10T09:43:37;5.30;;;1.90;;
51529;SDS011;37613;51.788;21.582;2023-05-10T09:47:40;6.90;;;2.20;;
51529;SDS011;37613;51.788;21.582;2023-05-10T09:51:42;4.00;;;2.70;;
51529;SDS011;37613;51.788;21.582;2023-05-10T09:55:45;6.60;;;2.50;;
51529;SDS011;37613;51.788;21.582;2023-05-10T09:59:50;11.00;;;3.00;;
51529;SDS011;37613;51.788;21.582;2023-05-10T10:03:55;9.10;;;2.30;;
51529;SDS011;37613;51.788;21.582;2023-05-10T10:07:59;4.30;;;2.10;;
51529;SDS011;37613;51.788;21.582;2023-05-10T10:12:05;3.90;;;1.90;;
51529;SDS011;37613;51.788;21.582;2023-05-10T10:16:08;3.70;;;2.00;;
51529;SDS011;37613;51.788;21.582;2023-05-10T10:20:10;7.10;;;2.20;;
51529;SDS011;37613;51.788;21.582;2023-05-10T10:28:26;5.20;;;1.90;;
51529;SDS011;37613;51.788;21.582;2023-05-10T10:37:13;4.40;;;1.50;;
51529;SDS011;37613;51.788;21.582;2023-05-10T10:41:32;4.50;;;1.80;;
51529;SDS011;37613;51.788;21.582;2023-05-10T10:45:38;5.90;;;1.80;;
51529;SDS011;37613;51.788;21.582;2023-05-10T10:49:43;4.00;;;1.60;;
51529;SDS011;37613;51.788;21.582;2023-05-10T10:53:56;5.50;;;1.80;;
51529;SDS011;37613;51.788;21.582;2023-05-10T10:58:12;2.90;;;1.60;;
51529;SDS011;37613;51.788;21.582;2023-05-10T11:02:32;4.10;;;1.60;;
51529;SDS011;37613;51.788;21.582;2023-05-10T11:06:36;3.40;;;1.80;;
51529;SDS011;37613;51.788;21.582;2023-05-10T11:10:38;7.00;;;1.80;;
51529;SDS011;37613;51.788;21.582;2023-05-10T11:14:41;8.80;;;2.00;;
51529;SDS011;37613;51.788;21.582;2023-05-10T11:23:10;1.70;;;1.20;;
51529;SDS011;37613;51.788;21.582;2023-05-10T11:27:19;6.30;;;1.70;;
51529;SDS011;37613;51.788;21.582;2023-05-10T11:31:22;4.40;;;2.10;;
51529;SDS011;37613;51.788;21.582;2023-05-10T11:35:27;8.00;;;2.00;;
51529;SDS011;37613;51.788;21.582;2023-05-10T11:39:30;4.20;;;1.80;;
51529;SDS011;37613;51.788;21.582;2023-05-10T11:43:33;5.00;;;1.70;;
51529;SDS011;37613;51.788;21.582;2023-05-10T11:47:36;3.10;;;1.60;;
51529;SDS011;37613;51.788;21.582;2023-05-10T11:51:40;3.90;;;1.90;;
51529;SDS011;37613;51.788;21.582;2023-05-10T11:55:45;5.60;;;1.70;;
51529;SDS011;37613;51.788;21.582;2023-05-10T11:59:52;4.50;;;2.00;;
51529;SDS011;37613;51.788;21.582;2023-05-10T12:03:57;4.80;;;1.60;;
51529;SDS011;37613;51.788;21.582;2023-05-10T12:08:11;9.60;;;2.10;;
51529;SDS011;37613;51.788;21.582;2023-05-10T12:12:17;9.70;;;1.80;;
51529;SDS011;37613;51.788;21.582;2023-05-10T12:16:25;4.70;;;1.80;;
51529;SDS011;37613;51.788;21.582;2023-05-10T12:20:30;2.10;;;1.70;;
51529;SDS011;37613;51.788;21.582;2023-05-10T12:24:34;2.70;;;1.20;;
51529;SDS011;37613;51.788;21.582;2023-05-10T12:28:42;5.30;;;1.50;;
51529;SDS011;37613;51.788;21.582;2023-05-10T12:32:44;4.20;;;1.60;;
51529;SDS011;37613;51.788;21.582;2023-05-10T12:36:49;5.10;;;2.10;;
51529;SDS011;37613;51.788;21.582;2023-05-10T12:40:54;2.80;;;1.50;;
51529;SDS011;37613;51.788;21.582;2023-05-10T12:44:58;2.70;;;1.80;;
51529;SDS011;37613;51.788;21.582;2023-05-10T12:49:00;2.60;;;1.70;;
51529;SDS011;37613;51.788;21.582;2023-05-10T12:53:02;4.40;;;1.60;;
51529;SDS011;37613;51.788;21.582;2023-05-10T12:57:06;3.20;;;1.50;;
51529;SDS011;37613;51.788;21.582;2023-05-10T13:01:09;4.80;;;1.70;;
51529;SDS011;37613;51.788;21.582;2023-05-10T13:09:14;5.70;;;2.00;;
51529;SDS011;37613;51.788;21.582;2023-05-10T13:14:19;5.50;;;1.70;;
51529;SDS011;37613;51.788;21.582;2023-05-10T13:18:24;10.90;;;1.70;;
51529;SDS011;37613;51.788;21.582;2023-05-10T13:22:27;2.20;;;1.70;;
51529;SDS011;37613;51.788;21.582;2023-05-10T13:26:29;3.30;;;1.80;;
51529;SDS011;37613;51.788;21.582;2023-05-10T13:30:32;2.80;;;1.60;;
51529;SDS011;37613;51.788;21.582;2023-05-10T13:34:34;4.40;;;1.90;;
51529;SDS011;37613;51.788;21.582;2023-05-10T13:38:37;4.40;;;2.60;;
51529;SDS011;37613;51.788;21.582;2023-05-10T13:42:39;1.60;;;1.50;;
51529;SDS011;37613;51.788;21.582;2023-05-10T13:46:41;4.70;;;1.80;;
51529;SDS011;37613;51.788;21.582;2023-05-10T13:50:43;2.40;;;1.70;;
51529;SDS011;37613;51.788;21.582;2023-05-10T13:54:45;6.80;;;1.70;;
51529;SDS011;37613;51.788;21.582;2023-05-10T13:58:48;8.20;;;1.90;;
51529;SDS011;37613;51.788;21.582;2023-05-10T14:02:50;2.60;;;1.80;;
51529;SDS011;37613;51.788;21.582;2023-05-10T14:06:52;2.70;;;1.70;;
51529;SDS011;37613;51.788;21.582;2023-05-10T14:10:54;4.20;;;1.50;;
51529;SDS011;37613;51.788;21.582;2023-05-10T14:14:57;4.20;;;1.70;;
51529;SDS011;37613;51.788;21.582;2023-05-10T14:19:00;2.40;;;1.50;;
51529;SDS011;37613;51.788;21.582;2023-05-10T14:23:03;4.10;;;1.50;;
51529;SDS011;37613;51.788;21.582;2023-05-10T14:27:05;2.20;;;1.70;;
51529;SDS011;37613;51.788;21.582;2023-05-10T14:31:07;2.00;;;1.60;;
51529;SDS011;37613;51.788;21.582;2023-05-10T14:35:09;5.90;;;1.80;;
51529;SDS011;37613;51.788;21.582;2023-05-10T14:39:12;2.90;;;1.30;;
51529;SDS011;37613;51.788;21.582;2023-05-10T14:43:14;4.80;;;2.50;;
51529;SDS011;37613;51.788;21.582;2023-05-10T14:47:17;9.10;;;2.40;;
51529;SDS011;37613;51.788;21.582;2023-05-10T14:51:22;2.90;;;1.80;;
51529;SDS011;37613;51.788;21.582;2023-05-10T14:55:26;5.60;;;1.50;;
51529;SDS011;37613;51.788;21.582;2023-05-10T14:59:31;6.30;;;1.80;;
51529;SDS011;37613;51.788;21.582;2023-05-10T15:03:33;2.90;;;1.50;;
51529;SDS011;37613;51.788;21.582;2023-05-10T15:07:36;3.50;;;1.90;;
51529;SDS011;37613;51.788;21.582;2023-05-10T15:11:41;5.20;;;1.70;;
51529;SDS011;37613;51.788;21.582;2023-05-10T15:15:43;6.40;;;1.70;;
51529;SDS011;37613;51.788;21.582;2023-05-10T15:19:54;5.60;;;3.40;;
51529;SDS011;37613;51.788;21.582;2023-05-10T15:23:57;8.70;;;2.90;;
51529;SDS011;37613;51.788;21.582;2023-05-10T15:28:02;2.30;;;1.50;;
51529;SDS011;37613;51.788;21.582;2023-05-10T15:32:08;3.60;;;2.00;;
51529;SDS011;37613;51.788;21.582;2023-05-10T15:36:10;10.10;;;2.50;;
51529;SDS011;37613;51.788;21.582;2023-05-10T15:40:15;6.00;;;1.60;;
51529;SDS011;37613;51.788;21.582;2023-05-10T15:44:22;2.70;;;1.60;;
51529;SDS011;37613;51.788;21.582;2023-05-10T15:48:30;3.70;;;1.90;;
51529;SDS011;37613;51.788;21.582;2023-05-10T15:52:41;7.30;;;3.00;;
51529;SDS011;37613;51.788;21.582;2023-05-10T15:56:43;13.60;;;4.90;;
51529;SDS011;37613;51.788;21.582;2023-05-10T16:00:45;3.70;;;2.50;;
51529;SDS011;37613;51.788;21.582;2023-05-10T16:04:50;8.50;;;2.00;;
51529;SDS011;37613;51.788;21.582;2023-05-10T16:08:58;5.60;;;2.80;;
51529;SDS011;37613;51.788;21.582;2023-05-10T16:13:05;5.90;;;2.90;;
51529;SDS011;37613;51.788;21.582;2023-05-10T16:17:08;3.40;;;2.50;;
51529;SDS011;37613;51.788;21.582;2023-05-10T16:21:15;7.80;;;2.60;;
51529;SDS011;37613;51.788;21.582;2023-05-10T16:25:17;8.20;;;3.20;;
51529;SDS011;37613;51.788;21.582;2023-05-10T16:29:24;16.70;;;11.30;;
51529;SDS011;37613;51.788;21.582;2023-05-10T16:33:26;8.10;;;3.60;;
51529;SDS011;37613;51.788;21.582;2023-05-10T16:37:31;29.10;;;15.10;;
51529;SDS011;37613;51.788;21.582;2023-05-10T16:41:38;10.00;;;5.50;;
51529;SDS011;37613;51.788;21.582;2023-05-10T16:45:44;10.80;;;4.40;;
51529;SDS011;37613;51.788;21.582;2023-05-10T16:49:46;14.20;;;4.20;;
51529;SDS011;37613;51.788;21.582;2023-05-10T16:53:54;4.70;;;2.60;;
51529;SDS011;37613;51.788;21.582;2023-05-10T16:57:59;5.60;;;3.00;;
51529;SDS011;37613;51.788;21.582;2023-05-10T17:02:01;6.00;;;2.90;;
51529;SDS011;37613;51.788;21.582;2023-05-10T17:06:11;4.80;;;1.70;;
51529;SDS011;37613;51.788;21.582;2023-05-10T17:10:20;7.90;;;3.00;;
51529;SDS011;37613;51.788;21.582;2023-05-10T17:14:24;11.50;;;3.70;;
51529;SDS011;37613;51.788;21.582;2023-05-10T17:18:27;5.30;;;2.60;;
51529;SDS011;37613;51.788;21.582;2023-05-10T17:22:31;5.70;;;2.40;;
51529;SDS011;37613;51.788;21.582;2023-05-10T17:26:40;11.10;;;3.00;;
51529;SDS011;37613;51.788;21.582;2023-05-10T17:30:45;6.90;;;4.00;;
51529;SDS011;37613;51.788;21.582;2023-05-10T17:34:51;17.40;;;8.50;;
51529;SDS011;37613;51.788;21.582;2023-05-10T17:39:03;53.60;;;31.40;;
51529;SDS011;37613;51.788;21.582;2023-05-10T17:43:14;49.00;;;28.60;;
51529;SDS011;37613;51.788;21.582;2023-05-10T17:47:23;17.00;;;13.60;;
51529;SDS011;37613;51.788;21.582;2023-05-10T17:51:32;128.80;;;75.30;;
51529;SDS011;37613;51.788;21.582;2023-05-10T17:55:45;92.50;;;56.40;;
51529;SDS011;37613;51.788;21.582;2023-05-10T18:00:00;22.50;;;13.40;;
51529;SDS011;37613;51.788;21.582;2023-05-10T18:04:11;92.20;;;52.90;;
51529;SDS011;37613;51.788;21.582;2023-05-10T18:08:22;88.80;;;54.20;;
51529;SDS011;37613;51.788;21.582;2023-05-10T18:12:45;66.00;;;41.80;;
51529;SDS011;37613;51.788;21.582;2023-05-10T18:16:55;66.10;;;40.70;;
51529;SDS011;37613;51.788;21.582;2023-05-10T18:21:10;72.40;;;43.40;;
51529;SDS011;37613;51.788;21.582;2023-05-10T18:25:28;59.60;;;32.80;;
51529;SDS011;37613;51.788;21.582;2023-05-10T18:29:43;40.80;;;20.30;;
51529;SDS011;37613;51.788;21.582;2023-05-10T18:34:10;81.70;;;44.20;;
51529;SDS011;37613;51.788;21.582;2023-05-10T18:38:30;76.50;;;46.40;;
51529;SDS011;37613;51.788;21.582;2023-05-10T18:43:04;38.10;;;22.40;;
51529;SDS011;37613;51.788;21.582;2023-05-10T18:47:32;59.90;;;25.00;;
51529;SDS011;37613;51.788;21.582;2023-05-10T18:57:19;32.20;;;17.30;;
51529;SDS011;37613;51.788;21.582;2023-05-10T19:02:18;27.10;;;14.30;;
51529;SDS011;37613;51.788;21.582;2023-05-10T19:06:53;27.10;;;15.30;;
51529;SDS011;37613;51.788;21.582;2023-05-10T19:11:18;21.00;;;13.50;;
51529;SDS011;37613;51.788;21.582;2023-05-10T19:25:11;15.00;;;10.70;;
51529;SDS011;37613;51.788;21.582;2023-05-10T19:29:42;13.00;;;9.50;;
51529;SDS011;37613;51.788;21.582;2023-05-10T19:34:06;14.40;;;6.80;;
51529;SDS011;37613;51.788;21.582;2023-05-10T19:39:33;11.40;;;7.10;;
51529;SDS011;37613;51.788;21.582;2023-05-10T19:54:45;16.10;;;9.30;;
51529;SDS011;37613;51.788;21.582;2023-05-10T20:24:29;16.60;;;8.40;;
51529;SDS011;37613;51.788;21.582;2023-05-10T20:28:51;15.80;;;8.50;;
51529;SDS011;37613;51.788;21.582;2023-05-10T20:37:57;14.30;;;7.50;;
51529;SDS011;37613;51.788;21.582;2023-05-10T20:42:16;9.30;;;4.30;;
51529;SDS011;37613;51.788;21.582;2023-05-10T20:46:55;11.90;;;4.50;;
51529;SDS011;37613;51.788;21.582;2023-05-10T20:52:15;6.20;;;3.30;;
51529;SDS011;37613;51.788;21.582;2023-05-10T21:11:33;5.60;;;2.90;;
51529;SDS011;37613;51.788;21.582;2023-05-10T21:41:38;5.90;;;3.60;;
51529;SDS011;37613;51.788;21.582;2023-05-10T22:00:58;8.70;;;3.80;;
51529;SDS011;37613;51.788;21.582;2023-05-10T22:19:54;9.40;;;4.10;;
51529;SDS011;37613;51.788;21.582;2023-05-10T22:40:30;7.60;;;3.70;;
51529;SDS011;37613;51.788;21.582;2023-05-10T22:45:47;8.20;;;4.80;;
51529;SDS011;37613;51.788;21.582;2023-05-10T22:56:21;4.70;;;3.20;;
51529;SDS011;37613;51.788;21.582;2023-05-10T23:01:38;8.10;;;4.00;;
51529;SDS011;37613;51.788;21.582;2023-05-10T23:06:40;9.70;;;5.00;;
51529;SDS011;37613;51.788;21.582;2023-05-10T23:11:19;9.30;;;4.60;;
51529;SDS011;37613;51.788;21.582;2023-05-10T23:16:26;5.50;;;3.30;;
51529;SDS011;37613;51.788;21.582;2023-05-10T23:26:20;6.60;;;3.30;;
51529;SDS011;37613;51.788;21.582;2023-05-10T23:36:10;5.70;;;3.30;;
51529;SDS011;37613;51.788;21.582;2023-05-10T23:46:01;8.60;;;3.20;;
51529;SDS011;37613;51.788;21.582;2023-05-10T23:55:48;3.80;;;2.70;;
